createdAt,value
2023-03-23T15:59:03.481Z,14.40
2023-03-23T16:01:31.944Z,16.20
2023-03-23T16:04:15.348Z,18.20
2023-03-23T16:06:45.775Z,19.60
2023-03-23T16:09:18.581Z,25.30
2023-03-23T16:11:49.889Z,21.70
2023-03-23T16:14:18.432Z,28.00
2023-03-23T16:16:50.787Z,24.10
2023-03-23T16:19:24.517Z,21.20
2023-03-23T16:21:53.615Z,17.90
2023-03-23T16:24:26.273Z,18.00
2023-03-23T16:26:55.528Z,16.10
2023-03-23T16:29:39.998Z,16.70
2023-03-23T16:32:14.981Z,16.80
2023-03-23T16:34:43.316Z,17.40
2023-03-23T16:37:12.166Z,19.30
2023-03-23T16:39:42.340Z,19.50
2023-03-23T16:42:10.552Z,20.80
2023-03-23T16:44:41.407Z,22.50
2023-03-23T16:47:11.219Z,22.70
2023-03-23T16:49:39.391Z,22.70
2023-03-23T16:52:09.809Z,24.30
2023-03-23T16:54:38.441Z,26.40
2023-03-23T16:57:09.488Z,31.60
2023-03-23T16:59:38.081Z,34.30
2023-03-23T17:02:06.200Z,35.10
2023-03-23T17:04:34.527Z,36.50
2023-03-23T17:07:03.978Z,32.50
2023-03-23T17:09:32.072Z,33.80
2023-03-23T17:12:01.226Z,37.80
2023-03-23T17:14:29.463Z,32.10
2023-03-23T17:16:57.612Z,30.30
2023-03-23T17:19:26.496Z,29.00
2023-03-23T17:21:54.623Z,31.70
2023-03-23T17:24:28.520Z,35.10
2023-03-23T17:26:56.954Z,34.80
2023-03-23T17:29:25.158Z,29.70
2023-03-23T17:31:55.003Z,30.00
2023-03-23T17:34:23.301Z,34.40
2023-03-23T17:36:51.796Z,32.50
2023-03-23T17:39:19.882Z,30.40
2023-03-23T17:41:48.101Z,30.50
2023-03-23T17:44:16.176Z,32.10
2023-03-23T17:46:44.395Z,30.20
2023-03-23T17:49:12.608Z,29.30
2023-03-23T17:51:40.867Z,27.00
2023-03-23T17:54:09.873Z,25.20
2023-03-23T17:56:40.033Z,25.30
2023-03-23T17:59:08.398Z,25.90
2023-03-23T18:01:36.490Z,32.90
2023-03-23T18:04:06.278Z,33.90
2023-03-23T18:06:34.877Z,32.30
2023-03-23T18:09:03.704Z,33.50
2023-03-23T18:11:32.528Z,35.10
2023-03-23T18:14:00.794Z,29.80
2023-03-23T18:16:35.479Z,26.30
2023-03-23T18:19:04.212Z,21.90
2023-03-23T18:21:32.702Z,20.40
2023-03-23T18:24:02.000Z,20.30
2023-03-23T18:26:32.452Z,20.30
2023-03-23T18:29:00.636Z,22.10
2023-03-23T18:31:29.052Z,21.60
2023-03-23T18:33:57.311Z,24.40
2023-03-23T18:36:26.597Z,25.30
2023-03-23T18:38:56.658Z,25.20
2023-03-23T18:41:24.842Z,30.20
2023-03-23T18:43:53.490Z,33.80
2023-03-23T18:46:22.400Z,40.50
2023-03-23T18:48:50.942Z,36.30
2023-03-23T18:51:19.075Z,30.50
2023-03-23T18:53:47.773Z,32.90
2023-03-23T18:56:16.830Z,27.40
2023-03-23T18:58:47.319Z,27.30
2023-03-23T19:01:17.276Z,27.80
2023-03-23T19:03:46.170Z,28.20
2023-03-23T19:06:19.516Z,27.70
2023-03-23T19:11:17.248Z,25.70
2023-03-23T19:13:58.425Z,28.00
2023-03-23T19:16:31.287Z,26.60
2023-03-23T19:19:01.909Z,27.30
2023-03-23T19:21:31.985Z,29.20
2023-03-23T19:24:01.593Z,28.50
2023-03-23T19:26:39.710Z,28.80
2023-03-23T19:31:46.313Z,27.80
2023-03-23T19:34:15.467Z,26.30
2023-03-23T19:36:54.557Z,25.60
2023-03-23T19:39:25.236Z,25.50
2023-03-23T19:41:53.638Z,30.50
2023-03-23T19:44:24.149Z,32.40
2023-03-23T19:46:52.421Z,33.90
2023-03-23T19:49:21.020Z,33.90
2023-03-23T19:51:49.620Z,33.30
2023-03-23T19:54:18.603Z,35.60
2023-03-23T19:56:47.167Z,36.20
2023-03-23T19:59:16.571Z,36.90
2023-03-23T20:01:45.460Z,35.90
2023-03-23T20:04:15.210Z,35.40
2023-03-23T20:06:47.342Z,34.90
2023-03-23T20:09:18.176Z,34.30
2023-03-23T20:11:47.310Z,36.00
2023-03-23T20:14:15.457Z,35.90
2023-03-23T20:16:46.256Z,34.20
2023-03-23T20:19:19.154Z,37.50
2023-03-23T20:21:48.112Z,37.10
2023-03-23T20:24:17.088Z,37.20
2023-03-23T20:26:47.586Z,35.90
2023-03-23T20:34:00.348Z,34.60
2023-03-23T20:36:36.939Z,36.90
2023-03-23T20:39:10.718Z,34.10
2023-03-23T20:41:41.207Z,30.90
2023-03-23T20:44:14.075Z,29.30
2023-03-23T20:46:47.045Z,29.30
2023-03-23T20:49:15.935Z,29.90
2023-03-23T20:51:48.199Z,26.10
2023-03-23T20:54:18.664Z,26.90
2023-03-23T20:56:47.724Z,25.10
2023-03-23T20:59:16.304Z,25.50
2023-03-23T21:01:44.945Z,24.60
2023-03-23T21:04:18.097Z,25.20
2023-03-23T21:06:49.097Z,26.50
2023-03-23T21:09:18.468Z,23.80
2023-03-23T21:11:47.799Z,23.00
2023-03-23T21:14:16.353Z,21.90
2023-03-23T21:16:45.823Z,21.40
2023-03-23T21:19:21.880Z,23.90
2023-03-23T21:21:56.026Z,23.50
2023-03-23T21:24:30.515Z,25.00
2023-03-23T21:27:07.536Z,23.20
2023-03-23T21:29:38.831Z,22.80
2023-03-23T21:32:08.921Z,22.90
2023-03-23T21:34:37.842Z,23.30
2023-03-23T21:37:06.206Z,22.80
2023-03-23T21:39:38.017Z,28.20
2023-03-23T21:42:08.610Z,27.70
2023-03-23T21:44:43.382Z,29.10
2023-03-23T21:47:16.295Z,26.50
2023-03-23T21:49:49.330Z,27.90
2023-03-23T21:52:21.429Z,31.30
2023-03-23T21:54:54.387Z,30.80
2023-03-23T21:57:25.557Z,28.20
2023-03-23T22:00:15.377Z,29.90
2023-03-23T22:02:46.738Z,26.40
2023-03-23T22:05:17.412Z,26.30
2023-03-23T22:07:49.377Z,25.20
2023-03-23T22:10:21.023Z,25.30
2023-03-23T22:12:55.525Z,25.20
2023-03-23T22:15:30.437Z,28.50
2023-03-23T22:18:03.502Z,27.50
2023-03-23T22:20:35.855Z,34.50
2023-03-23T22:23:07.404Z,31.50
2023-03-23T22:25:39.432Z,29.10
2023-03-23T22:28:11.396Z,27.30
2023-03-23T22:30:44.055Z,25.70
2023-03-23T22:33:14.944Z,27.40
2023-03-23T22:35:48.800Z,28.50
2023-03-23T22:38:21.880Z,24.60
2023-03-23T22:48:25.425Z,26.50
2023-03-23T22:50:54.390Z,23.70
2023-03-23T22:53:22.669Z,26.50
2023-03-23T22:55:53.202Z,22.80
2023-03-23T22:58:21.465Z,25.00
2023-03-23T23:01:01.556Z,26.20
2023-03-23T23:03:30.443Z,26.70
2023-03-23T23:05:59.103Z,26.40
2023-03-23T23:08:31.427Z,26.10
2023-03-23T23:11:01.917Z,26.80
2023-03-23T23:13:31.846Z,25.50
2023-03-23T23:16:02.267Z,24.30
2023-03-23T23:18:31.545Z,23.50
2023-03-23T23:21:12.312Z,24.90
2023-03-23T23:23:41.446Z,23.70
2023-03-23T23:26:10.056Z,21.70
2023-03-23T23:28:38.742Z,21.70
2023-03-23T23:31:22.803Z,20.60
2023-03-23T23:33:51.088Z,20.50
2023-03-23T23:36:21.248Z,20.50
2023-03-23T23:38:50.028Z,21.40
2023-03-23T23:41:25.675Z,21.10
2023-03-23T23:43:54.016Z,21.00
2023-03-23T23:46:22.561Z,20.60
2023-03-23T23:48:51.395Z,23.00
2023-03-23T23:51:20.047Z,23.50
2023-03-23T23:53:53.623Z,22.30
2023-03-23T23:58:51.416Z,20.10
